createdAt,value
2023-04-14T00:00:37.730Z,99.09
2023-04-14T00:03:17.634Z,99.14
2023-04-14T00:05:46.355Z,99.18
2023-04-14T00:08:14.748Z,99.31
2023-04-14T00:10:43.088Z,99.35
2023-04-14T00:13:11.555Z,99.27
2023-04-14T00:15:42.061Z,99.24
2023-04-14T00:18:10.635Z,99.25
2023-04-14T00:20:39.250Z,99.34
2023-04-14T00:23:07.636Z,99.43
2023-04-14T00:25:36.044Z,99.62
2023-04-14T00:28:04.429Z,99.66
2023-04-14T00:30:33.020Z,99.58
2023-04-14T00:33:01.281Z,99.81
2023-04-14T00:35:32.459Z,99.98
2023-04-14T00:38:00.763Z,99.92
2023-04-14T00:40:31.396Z,99.97
2023-04-14T00:42:59.742Z,99.93
2023-04-14T00:45:28.723Z,99.97
2023-04-14T00:47:58.494Z,99.92
2023-04-14T00:50:26.853Z,99.96
2023-04-14T00:52:56.166Z,99.97
2023-04-14T00:55:25.074Z,99.91
2023-04-14T00:57:54.897Z,99.91
2023-04-14T01:00:23.435Z,99.90
2023-04-14T01:02:51.949Z,99.99
2023-04-14T01:05:20.590Z,100.00
2023-04-14T01:07:49.912Z,100.00
2023-04-14T01:10:18.487Z,100.00
2023-04-14T01:12:46.922Z,100.00
2023-04-14T01:15:31.317Z,100.00
2023-04-14T01:18:27.184Z,100.00
2023-04-14T01:21:21.754Z,100.00
2023-04-14T01:24:09.373Z,100.00
2023-04-14T01:26:39.187Z,100.00
2023-04-14T01:29:16.789Z,100.00
2023-04-14T01:31:49.493Z,100.00
2023-04-14T01:34:31.454Z,100.00
2023-04-14T01:37:15.049Z,100.00
2023-04-14T01:39:54.701Z,100.00
2023-04-14T01:42:27.806Z,100.00
2023-04-14T01:45:01.824Z,100.00
2023-04-14T01:47:30.483Z,99.99
2023-04-14T01:50:01.209Z,99.78
2023-04-14T01:52:31.026Z,99.90
2023-04-14T01:55:05.917Z,100.00
2023-04-14T01:57:36.754Z,100.00
2023-04-14T02:00:09.288Z,100.00
2023-04-14T02:02:45.628Z,100.00
2023-04-14T02:05:17.297Z,100.00
2023-04-14T02:07:48.201Z,100.00
2023-04-14T02:10:20.504Z,100.00
2023-04-14T02:12:52.824Z,100.00
2023-04-14T02:15:24.109Z,100.00
2023-04-14T02:17:52.976Z,100.00
2023-04-14T02:20:22.234Z,100.00
2023-04-14T02:22:50.578Z,100.00
2023-04-14T02:25:18.987Z,100.00
2023-04-14T02:27:56.463Z,100.00
2023-04-14T02:30:30.287Z,100.00
2023-04-14T02:33:05.765Z,100.00
2023-04-14T02:35:47.735Z,100.00
2023-04-14T02:38:33.492Z,100.00
2023-04-14T02:41:08.922Z,100.00
2023-04-14T02:43:44.288Z,100.00
2023-04-14T02:46:15.992Z,100.00
2023-04-14T02:48:46.410Z,100.00
2023-04-14T02:51:18.145Z,100.00
2023-04-14T02:53:48.356Z,100.00
2023-04-14T02:56:26.430Z,100.00
2023-04-14T02:58:56.788Z,100.00
2023-04-14T03:01:26.808Z,100.00
2023-04-14T03:03:57.899Z,100.00
2023-04-14T03:06:28.990Z,100.00
2023-04-14T03:09:00.046Z,100.00
2023-04-14T03:11:29.545Z,100.00
2023-04-14T03:13:59.422Z,100.00
2023-04-14T03:16:28.917Z,100.00
2023-04-14T03:18:58.570Z,100.00
2023-04-14T03:21:30.196Z,100.00
2023-04-14T03:23:59.365Z,100.00
2023-04-14T03:26:32.490Z,100.00
2023-04-14T03:29:03.734Z,100.00
2023-04-14T03:31:37.109Z,100.00
2023-04-14T03:34:07.656Z,100.00
2023-04-14T03:36:41.315Z,100.00
2023-04-14T03:39:12.570Z,100.00
2023-04-14T03:41:47.824Z,100.00
2023-04-14T03:44:19.140Z,100.00
2023-04-14T03:46:49.490Z,100.00
2023-04-14T03:49:20.875Z,100.00
2023-04-14T03:51:53.660Z,100.00
2023-04-14T03:54:25.444Z,100.00
2023-04-14T03:56:57.010Z,100.00
2023-04-14T03:59:28.448Z,100.00
2023-04-14T04:01:57.659Z,100.00
2023-04-14T04:04:26.322Z,100.00
2023-04-14T04:06:55.046Z,100.00
2023-04-14T04:09:24.992Z,100.00
2023-04-14T04:11:58.092Z,100.00
2023-04-14T04:14:30.039Z,100.00
2023-04-14T04:17:02.838Z,100.00
2023-04-14T04:19:33.757Z,100.00
2023-04-14T04:22:03.514Z,100.00
2023-04-14T04:24:37.570Z,100.00
2023-04-14T04:27:17.140Z,100.00
2023-04-14T04:29:54.039Z,100.00
2023-04-14T04:32:22.484Z,100.00
2023-04-14T04:34:51.871Z,100.00
2023-04-14T04:37:21.728Z,100.00
2023-04-14T04:39:50.042Z,100.00
2023-04-14T04:42:18.858Z,100.00
2023-04-14T04:44:47.674Z,100.00
2023-04-14T04:47:16.103Z,100.00
2023-04-14T04:49:45.096Z,100.00
2023-04-14T04:52:13.539Z,100.00
2023-04-14T04:54:41.715Z,100.00
2023-04-14T04:57:11.201Z,100.00
2023-04-14T04:59:40.486Z,100.00
2023-04-14T05:02:08.809Z,100.00
2023-04-14T05:04:37.279Z,100.00
2023-04-14T05:07:06.266Z,100.00
2023-04-14T05:09:34.518Z,100.00
2023-04-14T05:12:03.171Z,100.00
2023-04-14T05:14:31.498Z,100.00
2023-04-14T05:16:59.674Z,100.00
2023-04-14T05:19:27.875Z,100.00
2023-04-14T05:21:56.141Z,100.00
2023-04-14T05:24:24.453Z,100.00
2023-04-14T05:27:12.344Z,100.00
2023-04-14T05:29:41.563Z,100.00
2023-04-14T05:32:10.770Z,100.00
2023-04-14T05:34:38.980Z,100.00
2023-04-14T05:37:07.338Z,100.00
2023-04-14T05:39:35.988Z,100.00
2023-04-14T05:42:04.413Z,100.00
2023-04-14T05:44:32.702Z,100.00
2023-04-14T05:47:01.018Z,100.00
2023-04-14T05:49:30.721Z,100.00
2023-04-14T05:51:58.978Z,100.00
2023-04-14T05:54:27.191Z,100.00
2023-04-14T05:56:56.491Z,100.00
2023-04-14T05:59:24.853Z,100.00
2023-04-14T06:01:53.238Z,100.00
2023-04-14T06:04:22.182Z,100.00
2023-04-14T06:06:52.581Z,100.00
2023-04-14T06:09:21.634Z,100.00
2023-04-14T06:11:50.105Z,100.00
2023-04-14T06:14:21.457Z,100.00
2023-04-14T06:16:52.702Z,100.00
2023-04-14T06:19:21.259Z,100.00
2023-04-14T06:21:49.798Z,100.00
2023-04-14T06:24:18.408Z,100.00
2023-04-14T06:26:47.538Z,100.00
2023-04-14T06:29:16.232Z,100.00
2023-04-14T06:31:44.904Z,100.00
2023-04-14T06:34:13.428Z,100.00
2023-04-14T06:36:44.184Z,100.00
2023-04-14T06:39:14.384Z,99.75
2023-04-14T06:41:44.091Z,99.45
2023-04-14T06:44:14.863Z,99.01
2023-04-14T06:46:43.372Z,97.72
2023-04-14T06:49:37.518Z,96.97
2023-04-14T06:52:06.458Z,96.82
2023-04-14T06:54:36.240Z,95.94
2023-04-14T06:57:06.034Z,95.78
2023-04-14T06:59:34.517Z,94.75
2023-04-14T07:02:03.181Z,93.55
2023-04-14T07:04:31.871Z,93.90
2023-04-14T07:07:01.216Z,93.01
2023-04-14T07:09:29.804Z,91.16
2023-04-14T07:11:59.707Z,89.00
2023-04-14T07:14:32.497Z,89.32
2023-04-14T07:17:01.051Z,86.54
2023-04-14T07:19:30.038Z,85.11
2023-04-14T07:21:58.512Z,84.48
2023-04-14T07:24:26.851Z,83.66
2023-04-14T07:26:55.619Z,83.22
2023-04-14T07:29:24.003Z,82.93
2023-04-14T07:31:52.325Z,81.96
2023-04-14T07:34:21.301Z,80.94
2023-04-14T07:36:49.820Z,79.03
2023-04-14T07:39:22.410Z,79.18
2023-04-14T07:41:51.228Z,79.41
2023-04-14T07:44:19.614Z,76.82
2023-04-14T07:46:47.998Z,75.65
2023-04-14T07:49:16.527Z,75.32
2023-04-14T07:51:44.861Z,75.09
2023-04-14T07:54:13.220Z,74.60
2023-04-14T07:56:41.939Z,72.83
2023-04-14T07:59:10.500Z,72.19
2023-04-14T08:01:39.178Z,72.29
2023-04-14T08:04:07.677Z,71.86
2023-04-14T08:06:36.571Z,71.81
2023-04-14T08:09:04.909Z,70.51
2023-04-14T08:11:33.223Z,68.30
2023-04-14T08:14:01.542Z,66.49
2023-04-14T08:16:30.345Z,68.05
2023-04-14T08:18:59.112Z,66.96
2023-04-14T08:21:27.816Z,67.15
2023-04-14T08:23:56.244Z,66.94
2023-04-14T08:26:24.635Z,66.31
2023-04-14T08:28:53.769Z,63.41
2023-04-14T08:31:25.851Z,61.11
2023-04-14T08:33:54.302Z,61.82
2023-04-14T08:36:22.811Z,61.33
2023-04-14T08:38:51.184Z,58.76
2023-04-14T08:41:23.415Z,56.74
2023-04-14T08:43:53.247Z,57.80
2023-04-14T08:46:24.614Z,58.36
2023-04-14T08:48:59.161Z,55.71
2023-04-14T08:51:35.053Z,55.95
2023-04-14T08:54:10.816Z,56.28
2023-04-14T08:56:43.242Z,56.52
2023-04-14T08:59:12.125Z,56.77
2023-04-14T09:01:40.694Z,54.07
2023-04-14T09:04:10.388Z,54.12
2023-04-14T09:06:39.966Z,53.16
2023-04-14T09:09:16.884Z,54.17
2023-04-14T09:11:45.529Z,51.90
2023-04-14T09:14:18.391Z,52.02
2023-04-14T09:16:48.876Z,52.96
2023-04-14T09:19:17.556Z,51.50
2023-04-14T09:21:53.809Z,48.33
2023-04-14T09:24:25.069Z,49.04
2023-04-14T09:26:56.090Z,50.30
2023-04-14T09:29:26.680Z,49.54
2023-04-14T09:31:55.101Z,48.85
2023-04-14T09:34:23.615Z,50.02
2023-04-14T09:37:08.340Z,49.69
2023-04-14T09:39:48.112Z,48.30
2023-04-14T09:42:17.726Z,47.02
2023-04-14T09:44:56.966Z,48.19
2023-04-14T09:47:26.307Z,48.06
2023-04-14T09:49:57.737Z,46.18
2023-04-14T09:52:47.693Z,46.66
2023-04-14T09:55:16.948Z,46.95
2023-04-14T09:57:58.519Z,47.74
2023-04-14T10:00:27.373Z,47.92
2023-04-14T10:03:01.665Z,46.53
2023-04-14T10:05:34.561Z,46.05
2023-04-14T10:08:04.384Z,45.92
2023-04-14T10:10:33.041Z,46.32
2023-04-14T10:13:02.246Z,46.75
2023-04-14T10:15:31.782Z,45.31
2023-04-14T10:18:01.216Z,45.86
2023-04-14T10:20:29.955Z,47.20
2023-04-14T10:22:58.644Z,45.69
2023-04-14T10:25:28.044Z,46.28
2023-04-14T10:27:56.940Z,46.96
2023-04-14T10:30:26.222Z,46.96
2023-04-14T10:32:54.959Z,45.43
2023-04-14T10:35:23.484Z,43.65
2023-04-14T10:37:53.860Z,44.17
2023-04-14T10:40:23.329Z,43.68
2023-04-14T10:42:56.738Z,42.55
2023-04-14T10:46:06.722Z,42.23
2023-04-14T10:48:38.005Z,43.15
2023-04-14T10:51:10.868Z,43.09
2023-04-14T10:53:50.227Z,43.65
2023-04-14T10:56:25.210Z,42.06
2023-04-14T10:58:57.344Z,42.80
2023-04-14T11:01:31.122Z,42.76
2023-04-14T11:04:18.118Z,43.86
2023-04-14T11:06:53.045Z,44.25
2023-04-14T11:09:25.852Z,44.43
2023-04-14T11:11:56.788Z,44.02
2023-04-14T11:14:30.800Z,44.31
2023-04-14T11:17:05.408Z,44.05
2023-04-14T11:19:34.171Z,44.29
2023-04-14T11:22:02.731Z,44.74
2023-04-14T11:24:31.500Z,44.67
2023-04-14T11:27:00.222Z,44.37
2023-04-14T11:29:28.807Z,43.40
2023-04-14T11:32:02.158Z,44.16
2023-04-14T11:34:30.677Z,45.14
2023-04-14T11:37:01.707Z,45.44
2023-04-14T11:39:30.794Z,45.98
2023-04-14T11:42:01.584Z,46.33
2023-04-14T11:44:30.414Z,45.93
2023-04-14T11:46:58.796Z,46.71
2023-04-14T11:49:36.830Z,44.07
2023-04-14T11:52:08.726Z,43.70
2023-04-14T11:54:40.936Z,42.45
2023-04-14T11:57:14.916Z,42.55
2023-04-14T11:59:47.967Z,42.45
2023-04-14T12:02:23.213Z,43.95
2023-04-14T12:04:52.451Z,42.27
2023-04-14T12:07:21.100Z,41.85
2023-04-14T12:09:51.669Z,42.14
2023-04-14T12:12:20.375Z,42.19
2023-04-14T12:14:49.845Z,39.75
2023-04-14T12:17:20.397Z,39.90
2023-04-14T12:19:49.165Z,39.69
2023-04-14T12:22:27.912Z,41.40
2023-04-14T12:24:57.634Z,40.69
2023-04-14T12:27:27.729Z,39.37
2023-04-14T12:30:01.402Z,38.68
2023-04-14T12:32:41.046Z,39.35
2023-04-14T12:35:14.730Z,39.33
2023-04-14T12:37:51.733Z,39.09
2023-04-14T12:40:38.446Z,40.17
2023-04-14T12:43:08.671Z,41.56
2023-04-14T12:45:51.947Z,40.23
2023-04-14T12:48:20.972Z,40.07
2023-04-14T12:51:07.699Z,39.99
2023-04-14T12:53:36.404Z,39.53
2023-04-14T12:56:09.535Z,39.83
2023-04-14T12:58:43.816Z,39.28
2023-04-14T13:01:14.138Z,40.33
2023-04-14T13:03:43.061Z,40.20
2023-04-14T13:06:16.644Z,40.10
2023-04-14T13:08:51.655Z,39.16
2023-04-14T13:11:22.281Z,38.83
2023-04-14T13:13:52.524Z,39.64
2023-04-14T13:16:26.244Z,39.32
2023-04-14T13:18:59.417Z,40.23
2023-04-14T13:21:31.467Z,40.92
2023-04-14T13:24:00.058Z,41.02
2023-04-14T13:26:28.391Z,40.46
2023-04-14T13:28:56.697Z,41.46
2023-04-14T13:31:25.020Z,41.97
2023-04-14T13:33:53.493Z,42.76
2023-04-14T13:36:22.955Z,43.28
2023-04-14T13:38:51.696Z,43.65
2023-04-14T13:41:20.118Z,43.04
2023-04-14T13:43:48.503Z,43.49
2023-04-14T13:46:19.081Z,43.88
2023-04-14T13:48:47.713Z,43.09
2023-04-14T13:51:15.986Z,43.25
2023-04-14T13:53:44.333Z,43.73
2023-04-14T13:56:12.608Z,44.12
2023-04-14T13:58:41.759Z,44.10
2023-04-14T14:01:12.665Z,43.19
2023-04-14T14:03:42.152Z,43.85
2023-04-14T14:06:10.656Z,43.20
2023-04-14T14:08:39.201Z,43.43
2023-04-14T14:11:08.981Z,44.03
2023-04-14T14:13:38.976Z,43.36
2023-04-14T14:16:09.983Z,43.14
2023-04-14T14:18:38.470Z,43.62
2023-04-14T14:21:06.876Z,43.93
2023-04-14T14:23:35.149Z,44.17
2023-04-14T14:26:03.581Z,43.98
2023-04-14T14:28:32.513Z,43.85
2023-04-14T14:31:01.110Z,44.45
2023-04-14T14:33:29.576Z,44.75
2023-04-14T14:35:57.927Z,44.72
2023-04-14T14:38:26.359Z,45.31
2023-04-14T14:40:54.614Z,46.09
2023-04-14T14:43:22.883Z,46.36
2023-04-14T14:45:51.282Z,46.25
2023-04-14T14:48:19.695Z,46.46
2023-04-14T14:50:47.969Z,46.88
2023-04-14T14:53:16.645Z,47.38
2023-04-14T14:55:44.945Z,46.98
2023-04-14T14:58:13.211Z,46.74
2023-04-14T15:00:41.662Z,46.57
2023-04-14T15:03:10.240Z,47.00
2023-04-14T15:05:38.691Z,47.12
2023-04-14T15:08:07.363Z,47.43
2023-04-14T15:10:35.861Z,47.12
2023-04-14T15:13:04.481Z,47.72
2023-04-14T15:15:36.256Z,47.93
2023-04-14T15:18:05.300Z,48.04
2023-04-14T15:20:33.589Z,48.22
2023-04-14T15:23:02.336Z,48.48
2023-04-14T15:25:31.208Z,48.25
2023-04-14T15:27:59.533Z,48.66
2023-04-14T15:30:28.125Z,48.49
2023-04-14T15:32:58.273Z,48.41
2023-04-14T15:35:26.836Z,48.48
2023-04-14T15:37:55.173Z,48.68
2023-04-14T15:40:23.644Z,48.75
2023-04-14T15:42:52.974Z,49.01
2023-04-14T15:45:21.692Z,48.83
2023-04-14T15:47:50.736Z,49.03
2023-04-14T15:50:19.236Z,48.74
2023-04-14T15:52:47.610Z,49.34
2023-04-14T15:55:15.936Z,49.29
2023-04-14T15:57:44.184Z,49.55
2023-04-14T16:00:13.166Z,49.94
2023-04-14T16:02:42.715Z,50.27
2023-04-14T16:05:11.471Z,50.16
2023-04-14T16:07:39.998Z,50.22
2023-04-14T16:10:08.588Z,50.44
2023-04-14T16:12:36.960Z,50.62
2023-04-14T16:15:08.768Z,50.96
2023-04-14T16:17:37.214Z,51.13
2023-04-14T16:20:06.039Z,51.41
2023-04-14T16:22:34.345Z,51.49
2023-04-14T16:25:04.518Z,51.65
2023-04-14T16:27:33.773Z,51.76
2023-04-14T16:30:03.305Z,51.80
2023-04-14T16:32:31.713Z,52.04
2023-04-14T16:35:01.185Z,52.32
2023-04-14T16:37:29.503Z,52.23
2023-04-14T16:39:58.206Z,52.64
2023-04-14T16:42:26.595Z,53.07
2023-04-14T16:44:56.236Z,53.46
2023-04-14T16:47:24.727Z,53.66
2023-04-14T16:49:54.215Z,54.14
2023-04-14T16:52:23.379Z,54.63
2023-04-14T16:54:52.354Z,54.93
2023-04-14T16:57:21.746Z,55.01
2023-04-14T16:59:50.110Z,55.44
2023-04-14T17:02:18.571Z,55.94
2023-04-14T17:04:47.289Z,56.19
2023-04-14T17:07:16.145Z,56.63
2023-04-14T17:09:44.528Z,57.19
2023-04-14T17:12:12.750Z,57.57
2023-04-14T17:14:43.387Z,57.83
2023-04-14T17:17:11.833Z,58.40
2023-04-14T17:19:40.721Z,58.92
2023-04-14T17:22:09.250Z,59.79
2023-04-14T17:24:37.719Z,60.41
2023-04-14T17:27:06.404Z,61.20
2023-04-14T17:29:34.883Z,61.55
2023-04-14T17:32:03.738Z,61.63
2023-04-14T17:34:33.003Z,61.69
2023-04-14T17:37:01.469Z,61.92
2023-04-14T17:39:29.914Z,62.20
2023-04-14T17:41:58.523Z,62.26
2023-04-14T17:44:34.531Z,62.07
2023-04-14T17:47:11.289Z,62.41
2023-04-14T17:49:39.908Z,62.13
2023-04-14T17:52:18.390Z,62.26
2023-04-14T17:54:47.443Z,62.27
2023-04-14T17:57:17.410Z,62.35
2023-04-14T17:59:45.983Z,63.00
2023-04-14T18:02:15.713Z,63.76
2023-04-14T18:04:44.718Z,63.86
2023-04-14T18:07:13.040Z,64.36
2023-04-14T18:09:41.801Z,64.89
2023-04-14T18:12:10.975Z,65.26
2023-04-14T18:14:39.550Z,65.79
2023-04-14T18:17:07.860Z,66.19
2023-04-14T18:19:36.112Z,66.73
2023-04-14T18:22:04.423Z,67.13
2023-04-14T18:28:02.672Z,68.30
2023-04-14T18:29:54.254Z,68.57
2023-04-14T18:32:25.220Z,69.38
2023-04-14T18:34:53.624Z,69.75
2023-04-14T18:37:21.918Z,70.30
2023-04-14T18:39:50.404Z,70.81
2023-04-14T18:42:18.761Z,71.15
2023-04-14T18:44:47.092Z,71.38
2023-04-14T18:47:16.087Z,71.85
2023-04-14T18:49:44.394Z,71.67
2023-04-14T18:52:13.059Z,72.42
2023-04-14T18:54:41.429Z,72.42
2023-04-14T18:57:10.034Z,72.30
2023-04-14T18:59:38.296Z,72.73
2023-04-14T19:02:06.746Z,72.75
2023-04-14T19:04:35.906Z,72.22
2023-04-14T19:07:04.156Z,72.25
2023-04-14T19:09:33.747Z,72.28
2023-04-14T19:12:02.414Z,72.05
2023-04-14T19:14:30.792Z,72.36
2023-04-14T19:16:59.182Z,72.55
2023-04-14T19:19:27.520Z,73.32
2023-04-14T19:21:55.741Z,74.71
2023-04-14T19:24:24.369Z,75.35
2023-04-14T19:26:52.673Z,76.02
2023-04-14T19:29:23.189Z,77.00
2023-04-14T19:31:51.992Z,78.52
2023-04-14T19:34:20.749Z,78.94
2023-04-14T19:36:49.653Z,80.08
2023-04-14T19:39:20.230Z,80.68
2023-04-14T19:41:48.587Z,81.16
2023-04-14T19:44:21.841Z,81.71
2023-04-14T19:46:50.702Z,82.75
2023-04-14T19:49:19.197Z,83.18
2023-04-14T19:51:49.405Z,83.64
2023-04-14T19:54:17.855Z,84.60
2023-04-14T19:56:48.011Z,85.27
2023-04-14T19:59:17.597Z,86.14
2023-04-14T20:01:47.461Z,86.14
2023-04-14T20:04:15.980Z,86.00
2023-04-14T20:06:44.461Z,86.07
2023-04-14T20:09:13.116Z,86.41
2023-04-14T20:11:41.399Z,86.67
2023-04-14T20:14:10.745Z,87.16
2023-04-14T20:16:39.182Z,87.34
2023-04-14T20:19:07.455Z,87.50
2023-04-14T20:21:35.732Z,87.99
2023-04-14T20:24:04.730Z,87.99
2023-04-14T20:26:35.014Z,88.47
2023-04-14T20:29:05.385Z,88.64
2023-04-14T20:31:33.783Z,88.85
2023-04-14T20:34:03.456Z,89.22
2023-04-14T20:36:35.722Z,89.81
2023-04-14T20:39:06.041Z,90.33
2023-04-14T20:41:34.917Z,90.45
2023-04-14T20:44:06.355Z,90.39
2023-04-14T20:46:35.022Z,90.18
2023-04-14T20:49:03.521Z,90.39
2023-04-14T20:51:32.402Z,90.74
2023-04-14T20:54:01.861Z,90.82
2023-04-14T20:56:31.002Z,90.57
2023-04-14T20:59:00.540Z,90.59
2023-04-14T21:01:29.285Z,90.40
2023-04-14T21:03:57.663Z,90.72
2023-04-14T21:06:26.022Z,91.05
2023-04-14T21:08:54.330Z,90.90
2023-04-14T21:11:22.529Z,91.42
2023-04-14T21:15:40.402Z,91.71
2023-04-14T21:16:39.738Z,91.79
2023-04-14T21:19:08.234Z,91.72
2023-04-14T21:21:36.949Z,91.86
2023-04-14T21:24:06.026Z,91.78
2023-04-14T21:26:34.293Z,91.54
2023-04-14T21:29:02.732Z,91.38
2023-04-14T21:31:32.229Z,91.19
2023-04-14T21:34:00.577Z,91.21
2023-04-14T21:36:28.887Z,90.72
2023-04-14T21:38:57.368Z,90.65
2023-04-14T21:41:25.619Z,90.32
2023-04-14T21:43:53.986Z,90.29
2023-04-14T21:46:22.341Z,90.14
2023-04-14T21:48:50.930Z,90.13
2023-04-14T21:51:19.195Z,90.12
2023-04-14T21:53:47.832Z,89.95
2023-04-14T21:56:16.255Z,89.95
2023-04-14T21:58:45.977Z,89.95
2023-04-14T22:01:14.452Z,90.07
2023-04-14T22:03:42.872Z,89.95
2023-04-14T22:06:11.617Z,89.81
2023-04-14T22:08:40.804Z,89.88
2023-04-14T22:11:09.249Z,89.91
2023-04-14T22:13:37.576Z,89.94
2023-04-14T22:16:06.480Z,89.70
2023-04-14T22:18:35.897Z,89.49
2023-04-14T22:21:10.011Z,89.40
2023-04-14T22:23:40.154Z,88.95
2023-04-14T22:26:09.087Z,88.32
2023-04-14T22:28:46.540Z,88.03
2023-04-14T22:31:14.933Z,86.73
2023-04-14T22:33:43.689Z,86.08
2023-04-14T22:36:12.568Z,85.56
2023-04-14T22:38:41.985Z,85.00
2023-04-14T22:41:10.288Z,84.55
2023-04-14T22:43:38.526Z,84.27
2023-04-14T22:46:07.088Z,83.95
2023-04-14T22:48:35.379Z,82.93
2023-04-14T22:51:03.813Z,82.73
2023-04-14T22:53:32.236Z,82.43
2023-04-14T22:56:00.766Z,82.14
2023-04-14T22:58:32.088Z,81.87
2023-04-14T23:01:04.480Z,81.74
2023-04-14T23:03:37.870Z,81.53
2023-04-14T23:06:07.188Z,81.62
2023-04-14T23:08:35.519Z,81.50
2023-04-14T23:11:03.950Z,81.40
2023-04-14T23:13:32.335Z,81.41
2023-04-14T23:16:00.817Z,81.14
2023-04-14T23:18:28.978Z,81.05
2023-04-14T23:20:57.508Z,81.05
2023-04-14T23:23:25.906Z,80.92
2023-04-14T23:25:55.673Z,80.90
2023-04-14T23:28:25.092Z,80.52
2023-04-14T23:30:53.396Z,80.38
2023-04-14T23:33:21.928Z,80.53
2023-04-14T23:35:51.078Z,80.27
2023-04-14T23:38:19.632Z,80.06
2023-04-14T23:40:48.332Z,79.87
2023-04-14T23:43:16.759Z,79.56
2023-04-14T23:45:45.167Z,79.53
2023-04-14T23:48:13.381Z,79.44
2023-04-14T23:51:00.231Z,79.38
2023-04-14T23:53:30.362Z,79.57
2023-04-14T23:55:58.780Z,79.24
2023-04-14T23:58:30.289Z,78.71
